Welkom op Weerpagina Nieuwendam !!





My webcam Meer informatie My webcam


Onweer radar Meer informatie blitzortung!


Regen radar  rain snow radar


Bezoek onze andere website:

Template documentation
and downloads

And another site



METAR rapporten vliegvelden

   
EHAM - Amsterdam/Schiph, Netherlands
Afstand tot: ONO 18 km
Gewijzigd: 13-12-2017 11:25
Lichte (mot)regen, Grotendeels bewolkt  
Lichte (mot)regen, Grotendeels bewolkt  
   Wind: Zuiden 7.2 m/s
Wind: Zuiden 7.2 m/s
Temperatuur: 3°C
Voelt als: -2°C
Dauwpunt: 3°C
Vochtigheid: 100%
Barometer: 997 hPa
Bewolking: Mostly Cloudy
Zicht: 6 km
Bewolking: Licht bewolkt 400 ft,
Gedeeltelijk bewolkt 500 ft,
Grotendeels bewolkt 700 ft
EHAM 131025Z 18014KT 6000 -DZ FEW004 SCT005 BKN007 03/03 Q0997 TEMPO 4500
EHRD - Rotterdam Airpor, Netherlands
Afstand tot: ZZW 32 km
Gewijzigd: 13-12-2017 11:25
Wat regen mogelijk, Bewolking  
Wat regen mogelijk, Bewolking  
   Wind: ZZW 7.2 m/s
Wind: ZZW 7.2 m/s
Temperatuur: 4°C
Voelt als: -1°C
Dauwpunt: 3°C
Vochtigheid: 93%
Barometer: 997 hPa
Bewolking: Overcast
Zicht: 3 km
Bewolking: Gedeeltelijk bewolkt 400 ft,
Bewolking 500 ft
EHRD 131025Z AUTO 20014KT 170V240 3100 -RA SCT004 OVC005 04/03 Q0997 RERA REDZ R06/1///95 TEMPO 6000 RADZ
EHSC - Goeree Le Sea, Netherlands
Afstand tot: WZW 70 km
Gewijzigd: 13-12-2017 11:25
Wat regen mogelijk  
Wat regen mogelijk  
   Wind: ZW 14.4 m/s
Wind: ZW 14.4 m/s
Temperatuur: 7°C
Voelt als: 1°C
Dauwpunt: 6°C
Vochtigheid: 93%
Barometer: 996 hPa
Zicht: 5 km
EHSC 131025Z AUTO 23028KT 5000 -RA ///////// 07/06 Q0996 W08/H24
EHKD - De Kooy (navy), Netherlands
Afstand tot: N 77 km
Gewijzigd: 13-12-2017 11:25
Heavy Drizzle, Bewolking  
Heavy Drizzle, Bewolking  
   Wind: Zuiden 8.2 m/s
Wind: Zuiden 8.2 m/s
Temperatuur: 4°C
Voelt als: -1°C
Dauwpunt: 4°C
Vochtigheid: 100%
Barometer: 995 hPa
Bewolking: Overcast
Zicht: 3 km
Bewolking: Grotendeels bewolkt 300 ft,
Bewolking 400 ft
EHKD 131025Z AUTO 19016KT 2600 R21/3000D +DZ BKN003 OVC004 04/04 Q0995 YLO 19020G30KT 3000 RADZ BKN004 BKN006 TEMPO 7000 SCT006 BKN009
EHGR - Gilze-Rijen Rnla, Netherlands
Afstand tot: ZZO 78 km
Gewijzigd: 13-12-2017 11:34
Wat regen mogelijk, Bewolking  
Wat regen mogelijk, Bewolking  
   Wind: Zuiden 8.2 m/s
Wind: Zuiden 8.2 m/s
Temperatuur: 4°C
Voelt als: -1°C
Dauwpunt: 3°C
Vochtigheid: 93%
Barometer: 999 hPa
Bewolking: Overcast
Zicht: 5 km
Bewolking: Gedeeltelijk bewolkt 600 ft,
Grotendeels bewolkt 700 ft,
Bewolking 900 ft
EHGR 131034Z AUTO 19016KT 150V240 4500 -RA SCT006 BKN007 OVC009 04/03 Q0999 BLACKYLO 19018KT 6000 BKN010 OVC015 TEMPO 3000 RADZ FEW006 BKN008 OVC010
EHQE - Hoorn-A Sea, Netherlands
Afstand tot: NNW 81 km
Gewijzigd: 13-12-2017 11:25
Grotendeels bewolkt  
Grotendeels bewolkt  
   Wind: ZW 7.7 m/s
Wind: ZW 7.7 m/s
Temperatuur: 8°C
Voelt als: 4°C
Dauwpunt: 5°C
Vochtigheid: 82%
Barometer: 995 hPa
Bewolking: Mostly Cloudy
Zicht: meer dan 10 km
Bewolking: Licht bewolkt 900 ft,
Grotendeels bewolkt 1000 ft,
Grotendeels bewolkt 1300 ft
EHQE 131025Z AUTO 22015KT 9999 FEW009 BKN010 BKN013 08/05 Q0995 W///H///
EHPG - P11-B Sea, Netherlands
Afstand tot: W 84 km
Gewijzigd: 13-12-2017 11:25
Gedeeltelijk bewolkt  
Gedeeltelijk bewolkt  
   Wind: varieert 10.8 m/s
Wind: varieert 10.8 m/s
Temperatuur: 8°C
Voelt als: 3°C
Dauwpunt: 6°C
Vochtigheid: 87%
Barometer: 996 hPa
Bewolking: Partly Cloudy
Zicht: meer dan 10 km
Bewolking: Licht bewolkt 800 ft,
Gedeeltelijk bewolkt 900 ft
EHPG 131025Z AUTO VRB21KT 9999 FEW008 SCT009 08/06 Q0996 W///H///
EHWO - Woensdrecht Rnla, Netherlands
Afstand tot: Z 89 km
Gewijzigd: 13-12-2017 11:39
Bewolking  
Bewolking  
   Wind: ZZW 7.2 m/s<br />Gust to 7.2 m/s
Wind: ZZW 7.2 m/s
Gust to 7.2 m/s
Temperatuur: 5°C
Voelt als: 1°C
Dauwpunt: 4°C
Vochtigheid: 93%
Barometer: 998 hPa
Bewolking: Overcast
Zicht: meer dan 10 km
Bewolking: Grotendeels bewolkt 600 ft,
Grotendeels bewolkt 700 ft,
Bewolking 800 ft
EHWO 131039Z AUTO 21014G24KT 160V240 9999 BKN006 BKN007 OVC008 05/04 Q0998 YLO 20014G24KT 3500 RADZ BR FEW006 SCT008 OVC010 BECMG 9999 NSW FEW008 SCT012 BKN015
 

Script ontwikkeld door  Saratoga-weather.org Aangepast voor de template door  Weerstation Leuven

U vindt ons ook hier:

UK Metoffice

European Weather Network

WeatherCloud

Weather Underground

Benelux Weer Netwerk

AWEKAS

Citizen Weather Observer Program (CWOP)

Apparatuur in gebruik:

Weerstation
Davis VP2

Weerprogramma
Weather Display

Weercomputer
My Computer

Davis VP2

Weather Display

My Computer